sensor_id;sensor_type;location;lat;lon;timestamp;temperature;humidity
33508;DHT22;25568;37.410;-122.096;2023-03-11T00:01:23;18.40;87.70
33508;DHT22;25568;37.410;-122.096;2023-03-11T00:03:52;18.40;88.50
33508;DHT22;25568;37.410;-122.096;2023-03-11T00:06:22;18.40;87.70
33508;DHT22;25568;37.410;-122.096;2023-03-11T00:08:51;18.30;87.70
33508;DHT22;25568;37.410;-122.096;2023-03-11T00:11:20;18.30;87.70
33508;DHT22;25568;37.410;-122.096;2023-03-11T00:13:49;18.30;87.70
33508;DHT22;25568;37.410;-122.096;2023-03-11T00:16:18;18.30;87.70
33508;DHT22;25568;37.410;-122.096;2023-03-11T00:18:49;18.30;87.70
33508;DHT22;25568;37.410;-122.096;2023-03-11T00:21:19;18.30;87.70
33508;DHT22;25568;37.410;-122.096;2023-03-11T00:23:49;18.30;87.70
33508;DHT22;25568;37.410;-122.096;2023-03-11T00:26:18;18.30;87.70
33508;DHT22;25568;37.410;-122.096;2023-03-11T00:28:47;18.30;88.30
33508;DHT22;25568;37.410;-122.096;2023-03-11T00:31:16;18.40;87.80
33508;DHT22;25568;37.410;-122.096;2023-03-11T00:33:45;18.30;87.80
33508;DHT22;25568;37.410;-122.096;2023-03-11T00:36:22;18.30;87.80
33508;DHT22;25568;37.410;-122.096;2023-03-11T00:38:53;18.30;87.80
33508;DHT22;25568;37.410;-122.096;2023-03-11T00:41:21;18.30;87.70
33508;DHT22;25568;37.410;-122.096;2023-03-11T00:43:50;18.30;87.70
33508;DHT22;25568;37.410;-122.096;2023-03-11T00:46:19;18.30;87.70
33508;DHT22;25568;37.410;-122.096;2023-03-11T00:48:50;18.30;87.80
33508;DHT22;25568;37.410;-122.096;2023-03-11T00:51:19;18.30;87.80
33508;DHT22;25568;37.410;-122.096;2023-03-11T00:53:48;18.30;87.90
33508;DHT22;25568;37.410;-122.096;2023-03-11T00:56:18;18.30;87.90
33508;DHT22;25568;37.410;-122.096;2023-03-11T00:58:47;18.30;87.80
33508;DHT22;25568;37.410;-122.096;2023-03-11T01:01:17;18.30;87.80
33508;DHT22;25568;37.410;-122.096;2023-03-11T01:03:47;18.30;87.90
33508;DHT22;25568;37.410;-122.096;2023-03-11T01:06:16;18.30;87.90
33508;DHT22;25568;37.410;-122.096;2023-03-11T01:08:44;18.30;87.90
33508;DHT22;25568;37.410;-122.096;2023-03-11T01:11:13;18.30;87.90
33508;DHT22;25568;37.410;-122.096;2023-03-11T01:13:44;18.30;88.00
33508;DHT22;25568;37.410;-122.096;2023-03-11T01:16:12;18.30;88.00
33508;DHT22;25568;37.410;-122.096;2023-03-11T01:18:41;18.30;88.00
33508;DHT22;25568;37.410;-122.096;2023-03-11T01:21:10;18.30;88.10
33508;DHT22;25568;37.410;-122.096;2023-03-11T01:23:39;18.30;88.80
33508;DHT22;25568;37.410;-122.096;2023-03-11T01:26:08;18.30;88.10
33508;DHT22;25568;37.410;-122.096;2023-03-11T01:28:37;18.30;88.10
33508;DHT22;25568;37.410;-122.096;2023-03-11T01:31:08;18.30;88.10
33508;DHT22;25568;37.410;-122.096;2023-03-11T01:33:37;18.30;88.10
33508;DHT22;25568;37.410;-122.096;2023-03-11T01:36:07;18.30;87.80
33508;DHT22;25568;37.410;-122.096;2023-03-11T01:38:36;18.30;87.70
33508;DHT22;25568;37.410;-122.096;2023-03-11T01:41:05;18.40;87.40
33508;DHT22;25568;37.410;-122.096;2023-03-11T01:43:47;18.40;86.80
33508;DHT22;25568;37.410;-122.096;2023-03-11T01:46:19;18.40;86.60
33508;DHT22;25568;37.410;-122.096;2023-03-11T01:48:50;18.50;86.60
33508;DHT22;25568;37.410;-122.096;2023-03-11T01:51:24;18.50;86.50
33508;DHT22;25568;37.410;-122.096;2023-03-11T01:53:55;18.50;86.40
33508;DHT22;25568;37.410;-122.096;2023-03-11T01:56:24;18.60;86.50
33508;DHT22;25568;37.410;-122.096;2023-03-11T01:58:54;18.60;86.40
33508;DHT22;25568;37.410;-122.096;2023-03-11T02:01:24;18.70;86.30
33508;DHT22;25568;37.410;-122.096;2023-03-11T02:03:54;18.70;86.30
33508;DHT22;25568;37.410;-122.096;2023-03-11T02:06:24;18.70;86.20
33508;DHT22;25568;37.410;-122.096;2023-03-11T02:08:53;18.80;86.30
33508;DHT22;25568;37.410;-122.096;2023-03-11T02:11:25;18.90;86.40
33508;DHT22;25568;37.410;-122.096;2023-03-11T02:13:58;18.90;86.30
33508;DHT22;25568;37.410;-122.096;2023-03-11T02:16:30;18.90;86.60
33508;DHT22;25568;37.410;-122.096;2023-03-11T02:19:03;19.00;86.80
33508;DHT22;25568;37.410;-122.096;2023-03-11T02:21:34;19.00;87.00
33508;DHT22;25568;37.410;-122.096;2023-03-11T02:24:09;19.00;87.30
33508;DHT22;25568;37.410;-122.096;2023-03-11T02:26:50;19.00;87.50
33508;DHT22;25568;37.410;-122.096;2023-03-11T02:29:20;19.10;88.20
33508;DHT22;25568;37.410;-122.096;2023-03-11T02:31:49;19.20;88.90
33508;DHT22;25568;37.410;-122.096;2023-03-11T02:34:24;19.20;90.10
33508;DHT22;25568;37.410;-122.096;2023-03-11T02:36:54;19.20;89.70
33508;DHT22;25568;37.410;-122.096;2023-03-11T02:39:33;19.20;89.70
33508;DHT22;25568;37.410;-122.096;2023-03-11T02:42:06;19.10;89.70
33508;DHT22;25568;37.410;-122.096;2023-03-11T02:44:36;19.10;89.70
33508;DHT22;25568;37.410;-122.096;2023-03-11T02:47:06;19.00;89.70
33508;DHT22;25568;37.410;-122.096;2023-03-11T02:49:36;19.00;89.60
33508;DHT22;25568;37.410;-122.096;2023-03-11T02:52:05;18.90;89.50
33508;DHT22;25568;37.410;-122.096;2023-03-11T02:54:34;18.90;89.40
33508;DHT22;25568;37.410;-122.096;2023-03-11T02:57:05;18.90;89.30
33508;DHT22;25568;37.410;-122.096;2023-03-11T02:59:34;18.90;89.20
33508;DHT22;25568;37.410;-122.096;2023-03-11T03:02:05;18.90;89.20
33508;DHT22;25568;37.410;-122.096;2023-03-11T03:04:34;18.90;89.00
33508;DHT22;25568;37.410;-122.096;2023-03-11T03:07:03;18.80;88.90
33508;DHT22;25568;37.410;-122.096;2023-03-11T03:09:33;18.80;88.90
33508;DHT22;25568;37.410;-122.096;2023-03-11T03:12:04;18.80;88.80
33508;DHT22;25568;37.410;-122.096;2023-03-11T03:14:36;18.80;88.80
33508;DHT22;25568;37.410;-122.096;2023-03-11T03:17:05;18.80;88.70
33508;DHT22;25568;37.410;-122.096;2023-03-11T03:19:34;18.70;88.60
33508;DHT22;25568;37.410;-122.096;2023-03-11T03:22:03;18.70;88.60
33508;DHT22;25568;37.410;-122.096;2023-03-11T03:24:32;18.70;88.60
33508;DHT22;25568;37.410;-122.096;2023-03-11T03:27:01;18.70;88.50
33508;DHT22;25568;37.410;-122.096;2023-03-11T03:29:32;18.70;88.60
33508;DHT22;25568;37.410;-122.096;2023-03-11T03:32:01;18.70;88.50
33508;DHT22;25568;37.410;-122.096;2023-03-11T03:34:29;18.70;88.40
33508;DHT22;25568;37.410;-122.096;2023-03-11T03:36:58;18.60;88.40
33508;DHT22;25568;37.410;-122.096;2023-03-11T03:39:27;18.60;88.40
33508;DHT22;25568;37.410;-122.096;2023-03-11T03:41:56;18.60;88.30
33508;DHT22;25568;37.410;-122.096;2023-03-11T03:44:25;18.60;88.30
33508;DHT22;25568;37.410;-122.096;2023-03-11T03:46:58;18.60;88.30
33508;DHT22;25568;37.410;-122.096;2023-03-11T03:49:27;18.60;88.30
33508;DHT22;25568;37.410;-122.096;2023-03-11T03:51:56;18.60;88.30
33508;DHT22;25568;37.410;-122.096;2023-03-11T03:54:25;18.60;88.40
33508;DHT22;25568;37.410;-122.096;2023-03-11T03:56:54;18.60;88.50
33508;DHT22;25568;37.410;-122.096;2023-03-11T03:59:22;18.60;88.60
33508;DHT22;25568;37.410;-122.096;2023-03-11T04:01:51;18.60;88.60
33508;DHT22;25568;37.410;-122.096;2023-03-11T04:04:22;18.60;88.70
33508;DHT22;25568;37.410;-122.096;2023-03-11T04:06:51;18.50;88.70
33508;DHT22;25568;37.410;-122.096;2023-03-11T04:09:19;18.50;88.70
33508;DHT22;25568;37.410;-122.096;2023-03-11T04:11:48;18.60;88.80
33508;DHT22;25568;37.410;-122.096;2023-03-11T04:14:17;18.50;88.70
33508;DHT22;25568;37.410;-122.096;2023-03-11T04:16:46;18.50;88.80
33508;DHT22;25568;37.410;-122.096;2023-03-11T04:19:15;18.50;88.80
33508;DHT22;25568;37.410;-122.096;2023-03-11T04:21:45;18.50;88.90
33508;DHT22;25568;37.410;-122.096;2023-03-11T04:24:14;18.50;88.90
33508;DHT22;25568;37.410;-122.096;2023-03-11T04:26:43;18.50;88.90
33508;DHT22;25568;37.410;-122.096;2023-03-11T04:29:12;18.50;89.70
33508;DHT22;25568;37.410;-122.096;2023-03-11T04:31:41;18.50;89.00
33508;DHT22;25568;37.410;-122.096;2023-03-11T04:34:10;18.50;89.00
33508;DHT22;25568;37.410;-122.096;2023-03-11T04:36:38;18.50;89.00
33508;DHT22;25568;37.410;-122.096;2023-03-11T04:39:09;18.50;89.00
33508;DHT22;25568;37.410;-122.096;2023-03-11T04:41:38;18.50;89.00
33508;DHT22;25568;37.410;-122.096;2023-03-11T04:44:07;18.50;89.00
33508;DHT22;25568;37.410;-122.096;2023-03-11T04:46:35;18.50;89.00
33508;DHT22;25568;37.410;-122.096;2023-03-11T04:49:04;18.50;88.90
33508;DHT22;25568;37.410;-122.096;2023-03-11T04:51:33;18.50;88.90
33508;DHT22;25568;37.410;-122.096;2023-03-11T04:54:02;18.50;89.00
33508;DHT22;25568;37.410;-122.096;2023-03-11T04:56:33;18.50;89.00
33508;DHT22;25568;37.410;-122.096;2023-03-11T04:59:02;18.50;89.00
33508;DHT22;25568;37.410;-122.096;2023-03-11T05:01:34;18.50;88.90
33508;DHT22;25568;37.410;-122.096;2023-03-11T05:04:03;18.50;88.90
33508;DHT22;25568;37.410;-122.096;2023-03-11T05:06:31;18.50;88.90
33508;DHT22;25568;37.410;-122.096;2023-03-11T05:09:01;18.40;88.90
33508;DHT22;25568;37.410;-122.096;2023-03-11T05:11:32;18.40;88.90
33508;DHT22;25568;37.410;-122.096;2023-03-11T05:14:00;18.40;88.90
33508;DHT22;25568;37.410;-122.096;2023-03-11T05:16:29;18.40;88.90
33508;DHT22;25568;37.410;-122.096;2023-03-11T05:18:58;18.40;88.80
33508;DHT22;25568;37.410;-122.096;2023-03-11T05:21:37;18.40;88.80
33508;DHT22;25568;37.410;-122.096;2023-03-11T05:24:06;18.40;88.80
33508;DHT22;25568;37.410;-122.096;2023-03-11T05:26:37;18.40;88.80
33508;DHT22;25568;37.410;-122.096;2023-03-11T05:29:06;18.40;88.70
33508;DHT22;25568;37.410;-122.096;2023-03-11T05:31:35;18.40;88.70
33508;DHT22;25568;37.410;-122.096;2023-03-11T05:36:47;18.40;88.70
33508;DHT22;25568;37.410;-122.096;2023-03-11T05:39:16;18.40;88.70
33508;DHT22;25568;37.410;-122.096;2023-03-11T05:41:46;18.30;88.70
33508;DHT22;25568;37.410;-122.096;2023-03-11T05:44:15;18.30;88.70
33508;DHT22;25568;37.410;-122.096;2023-03-11T05:46:44;18.30;88.70
33508;DHT22;25568;37.410;-122.096;2023-03-11T05:49:13;18.30;88.70
33508;DHT22;25568;37.410;-122.096;2023-03-11T05:51:41;18.30;88.90
33508;DHT22;25568;37.410;-122.096;2023-03-11T05:54:10;18.30;88.90
33508;DHT22;25568;37.410;-122.096;2023-03-11T05:56:40;18.30;88.90
33508;DHT22;25568;37.410;-122.096;2023-03-11T05:59:12;18.30;88.90
33508;DHT22;25568;37.410;-122.096;2023-03-11T06:01:41;18.30;88.90
33508;DHT22;25568;37.410;-122.096;2023-03-11T06:04:10;18.30;88.90
33508;DHT22;25568;37.410;-122.096;2023-03-11T06:06:39;18.30;88.90
33508;DHT22;25568;37.410;-122.096;2023-03-11T06:09:11;18.30;89.70
33508;DHT22;25568;37.410;-122.096;2023-03-11T06:11:41;18.30;88.90
33508;DHT22;25568;37.410;-122.096;2023-03-11T06:14:13;18.30;88.90
33508;DHT22;25568;37.410;-122.096;2023-03-11T06:16:42;18.30;88.90
33508;DHT22;25568;37.410;-122.096;2023-03-11T06:19:11;18.30;88.90
33508;DHT22;25568;37.410;-122.096;2023-03-11T06:21:40;18.20;88.80
33508;DHT22;25568;37.410;-122.096;2023-03-11T06:24:09;18.30;88.80
33508;DHT22;25568;37.410;-122.096;2023-03-11T06:26:37;18.20;88.70
33508;DHT22;25568;37.410;-122.096;2023-03-11T06:29:11;18.20;88.80
33508;DHT22;25568;37.410;-122.096;2023-03-11T06:31:41;18.20;88.90
33508;DHT22;25568;37.410;-122.096;2023-03-11T06:34:10;18.20;89.00
33508;DHT22;25568;37.410;-122.096;2023-03-11T06:36:39;18.20;89.00
33508;DHT22;25568;37.410;-122.096;2023-03-11T06:39:10;18.20;89.20
33508;DHT22;25568;37.410;-122.096;2023-03-11T06:41:39;18.20;89.20
33508;DHT22;25568;37.410;-122.096;2023-03-11T06:44:09;18.20;89.20
33508;DHT22;25568;37.410;-122.096;2023-03-11T06:46:39;18.20;89.40
33508;DHT22;25568;37.410;-122.096;2023-03-11T06:49:08;18.20;89.50
33508;DHT22;25568;37.410;-122.096;2023-03-11T06:51:37;18.20;89.60
33508;DHT22;25568;37.410;-122.096;2023-03-11T06:54:06;18.20;89.70
33508;DHT22;25568;37.410;-122.096;2023-03-11T06:56:35;18.20;89.90
33508;DHT22;25568;37.410;-122.096;2023-03-11T06:59:04;18.20;90.00
33508;DHT22;25568;37.410;-122.096;2023-03-11T07:01:33;18.20;90.00
33508;DHT22;25568;37.410;-122.096;2023-03-11T07:04:03;18.20;90.20
33508;DHT22;25568;37.410;-122.096;2023-03-11T07:06:32;18.20;90.20
33508;DHT22;25568;37.410;-122.096;2023-03-11T07:09:01;18.20;90.30
33508;DHT22;25568;37.410;-122.096;2023-03-11T07:11:30;18.20;90.30
33508;DHT22;25568;37.410;-122.096;2023-03-11T07:13:59;18.10;90.20
33508;DHT22;25568;37.410;-122.096;2023-03-11T07:16:29;18.10;90.20
33508;DHT22;25568;37.410;-122.096;2023-03-11T07:18:59;18.10;90.20
33508;DHT22;25568;37.410;-122.096;2023-03-11T07:21:31;18.10;90.20
33508;DHT22;25568;37.410;-122.096;2023-03-11T07:24:01;18.10;90.20
33508;DHT22;25568;37.410;-122.096;2023-03-11T07:26:30;18.10;90.30
33508;DHT22;25568;37.410;-122.096;2023-03-11T07:29:02;18.10;90.30
33508;DHT22;25568;37.410;-122.096;2023-03-11T07:31:32;18.10;90.30
33508;DHT22;25568;37.410;-122.096;2023-03-11T07:34:04;18.10;90.30
33508;DHT22;25568;37.410;-122.096;2023-03-11T07:36:39;18.10;90.40
33508;DHT22;25568;37.410;-122.096;2023-03-11T07:39:13;18.00;90.30
33508;DHT22;25568;37.410;-122.096;2023-03-11T07:41:42;18.00;90.30
33508;DHT22;25568;37.410;-122.096;2023-03-11T07:44:12;18.00;90.40
33508;DHT22;25568;37.410;-122.096;2023-03-11T07:46:41;18.10;90.60
33508;DHT22;25568;37.410;-122.096;2023-03-11T07:49:13;18.10;90.50
33508;DHT22;25568;37.410;-122.096;2023-03-11T07:51:44;18.10;90.60
33508;DHT22;25568;37.410;-122.096;2023-03-11T07:54:13;18.20;90.60
33508;DHT22;25568;37.410;-122.096;2023-03-11T07:56:41;18.20;90.60
33508;DHT22;25568;37.410;-122.096;2023-03-11T07:59:10;18.20;90.70
33508;DHT22;25568;37.410;-122.096;2023-03-11T08:01:39;18.20;90.80
33508;DHT22;25568;37.410;-122.096;2023-03-11T08:04:13;18.20;90.80
33508;DHT22;25568;37.410;-122.096;2023-03-11T08:06:46;18.20;90.70
33508;DHT22;25568;37.410;-122.096;2023-03-11T08:09:15;18.20;90.80
33508;DHT22;25568;37.410;-122.096;2023-03-11T08:11:44;18.20;90.80
33508;DHT22;25568;37.410;-122.096;2023-03-11T08:14:12;18.30;90.80
33508;DHT22;25568;37.410;-122.096;2023-03-11T08:16:41;18.30;90.90
33508;DHT22;25568;37.410;-122.096;2023-03-11T08:19:11;18.30;90.80
33508;DHT22;25568;37.410;-122.096;2023-03-11T08:21:40;18.30;90.90
33508;DHT22;25568;37.410;-122.096;2023-03-11T08:24:12;18.30;90.90
33508;DHT22;25568;37.410;-122.096;2023-03-11T08:26:41;18.30;90.90
33508;DHT22;25568;37.410;-122.096;2023-03-11T08:29:10;18.40;91.00
33508;DHT22;25568;37.410;-122.096;2023-03-11T08:31:39;18.40;91.00
33508;DHT22;25568;37.410;-122.096;2023-03-11T08:34:09;18.30;91.00
33508;DHT22;25568;37.410;-122.096;2023-03-11T08:36:38;18.40;91.30
33508;DHT22;25568;37.410;-122.096;2023-03-11T08:39:07;18.40;91.10
33508;DHT22;25568;37.410;-122.096;2023-03-11T08:41:37;18.40;91.00
33508;DHT22;25568;37.410;-122.096;2023-03-11T08:44:06;18.50;91.00
33508;DHT22;25568;37.410;-122.096;2023-03-11T08:46:37;18.40;91.10
33508;DHT22;25568;37.410;-122.096;2023-03-11T08:49:06;18.50;91.00
33508;DHT22;25568;37.410;-122.096;2023-03-11T08:51:36;18.50;91.10
33508;DHT22;25568;37.410;-122.096;2023-03-11T08:54:05;18.50;91.10
33508;DHT22;25568;37.410;-122.096;2023-03-11T08:56:34;18.50;91.00
33508;DHT22;25568;37.410;-122.096;2023-03-11T08:59:04;18.50;91.10
33508;DHT22;25568;37.410;-122.096;2023-03-11T09:01:34;18.50;91.10
33508;DHT22;25568;37.410;-122.096;2023-03-11T09:04:03;18.40;91.10
33508;DHT22;25568;37.410;-122.096;2023-03-11T09:06:31;18.40;91.20
33508;DHT22;25568;37.410;-122.096;2023-03-11T09:09:01;18.30;91.20
33508;DHT22;25568;37.410;-122.096;2023-03-11T09:11:30;18.30;91.20
33508;DHT22;25568;37.410;-122.096;2023-03-11T09:13:58;18.30;91.20
33508;DHT22;25568;37.410;-122.096;2023-03-11T09:16:29;18.30;91.30
33508;DHT22;25568;37.410;-122.096;2023-03-11T09:18:58;18.30;91.30
33508;DHT22;25568;37.410;-122.096;2023-03-11T09:21:32;18.30;91.30
33508;DHT22;25568;37.410;-122.096;2023-03-11T09:24:02;18.30;91.30
33508;DHT22;25568;37.410;-122.096;2023-03-11T09:26:31;18.20;91.30
33508;DHT22;25568;37.410;-122.096;2023-03-11T09:29:00;18.20;91.40
33508;DHT22;25568;37.410;-122.096;2023-03-11T09:31:31;18.30;91.40
33508;DHT22;25568;37.410;-122.096;2023-03-11T09:34:00;18.20;91.40
33508;DHT22;25568;37.410;-122.096;2023-03-11T09:36:29;18.20;91.50
33508;DHT22;25568;37.410;-122.096;2023-03-11T09:38:59;18.20;91.90
33508;DHT22;25568;37.410;-122.096;2023-03-11T09:41:33;18.20;91.60
33508;DHT22;25568;37.410;-122.096;2023-03-11T09:44:15;18.20;91.60
33508;DHT22;25568;37.410;-122.096;2023-03-11T09:47:19;18.20;91.60
33508;DHT22;25568;37.410;-122.096;2023-03-11T09:50:23;18.20;91.70
33508;DHT22;25568;37.410;-122.096;2023-03-11T09:53:10;18.20;91.70
33508;DHT22;25568;37.410;-122.096;2023-03-11T09:55:44;18.20;92.00
33508;DHT22;25568;37.410;-122.096;2023-03-11T09:58:18;18.20;92.00
33508;DHT22;25568;37.410;-122.096;2023-03-11T10:00:49;18.20;92.10
33508;DHT22;25568;37.410;-122.096;2023-03-11T10:03:27;18.20;92.10
33508;DHT22;25568;37.410;-122.096;2023-03-11T10:06:05;18.20;92.30
33508;DHT22;25568;37.410;-122.096;2023-03-11T10:08:42;18.20;92.30
33508;DHT22;25568;37.410;-122.096;2023-03-11T10:11:26;18.20;92.30
33508;DHT22;25568;37.410;-122.096;2023-03-11T10:14:05;18.20;92.40
33508;DHT22;25568;37.410;-122.096;2023-03-11T10:16:41;18.20;92.40
33508;DHT22;25568;37.410;-122.096;2023-03-11T10:19:21;18.20;92.40
33508;DHT22;25568;37.410;-122.096;2023-03-11T10:22:00;18.20;92.50
33508;DHT22;25568;37.410;-122.096;2023-03-11T10:24:41;18.20;92.60
33508;DHT22;25568;37.410;-122.096;2023-03-11T10:27:19;18.20;92.60
33508;DHT22;25568;37.410;-122.096;2023-03-11T10:29:54;18.20;92.60
33508;DHT22;25568;37.410;-122.096;2023-03-11T10:32:31;18.20;92.60
33508;DHT22;25568;37.410;-122.096;2023-03-11T10:35:14;18.10;92.60
33508;DHT22;25568;37.410;-122.096;2023-03-11T10:37:50;18.20;92.70
33508;DHT22;25568;37.410;-122.096;2023-03-11T10:40:27;18.10;92.70
33508;DHT22;25568;37.410;-122.096;2023-03-11T10:42:59;18.20;92.80
33508;DHT22;25568;37.410;-122.096;2023-03-11T10:45:35;18.20;92.80
33508;DHT22;25568;37.410;-122.096;2023-03-11T10:48:09;18.20;92.90
33508;DHT22;25568;37.410;-122.096;2023-03-11T10:50:45;18.20;92.80
33508;DHT22;25568;37.410;-122.096;2023-03-11T10:53:17;18.30;92.90
33508;DHT22;25568;37.410;-122.096;2023-03-11T10:55:48;18.30;92.90
33508;DHT22;25568;37.410;-122.096;2023-03-11T10:58:20;18.30;92.90
33508;DHT22;25568;37.410;-122.096;2023-03-11T11:01:00;18.40;93.00
33508;DHT22;25568;37.410;-122.096;2023-03-11T11:03:30;18.30;92.90
33508;DHT22;25568;37.410;-122.096;2023-03-11T11:06:03;18.40;93.00
33508;DHT22;25568;37.410;-122.096;2023-03-11T11:08:33;18.40;93.00
33508;DHT22;25568;37.410;-122.096;2023-03-11T11:11:03;18.40;93.10
33508;DHT22;25568;37.410;-122.096;2023-03-11T11:13:33;18.40;93.10
33508;DHT22;25568;37.410;-122.096;2023-03-11T11:16:03;18.40;93.00
33508;DHT22;25568;37.410;-122.096;2023-03-11T11:18:33;18.40;93.10
33508;DHT22;25568;37.410;-122.096;2023-03-11T11:21:08;18.50;93.10
33508;DHT22;25568;37.410;-122.096;2023-03-11T11:23:41;18.50;93.10
33508;DHT22;25568;37.410;-122.096;2023-03-11T11:26:16;18.50;93.10
33508;DHT22;25568;37.410;-122.096;2023-03-11T11:28:47;18.50;93.10
33508;DHT22;25568;37.410;-122.096;2023-03-11T11:31:33;18.50;93.10
33508;DHT22;25568;37.410;-122.096;2023-03-11T11:34:02;18.50;93.00
33508;DHT22;25568;37.410;-122.096;2023-03-11T11:36:35;18.50;93.00
33508;DHT22;25568;37.410;-122.096;2023-03-11T11:39:15;18.50;93.00
33508;DHT22;25568;37.410;-122.096;2023-03-11T11:41:45;18.50;92.90
33508;DHT22;25568;37.410;-122.096;2023-03-11T11:44:20;18.50;93.00
33508;DHT22;25568;37.410;-122.096;2023-03-11T11:46:53;18.40;92.90
33508;DHT22;25568;37.410;-122.096;2023-03-11T11:49:26;18.40;93.00
33508;DHT22;25568;37.410;-122.096;2023-03-11T11:52:03;18.40;93.00
33508;DHT22;25568;37.410;-122.096;2023-03-11T11:54:37;18.30;93.00
33508;DHT22;25568;37.410;-122.096;2023-03-11T11:57:11;18.30;93.00
33508;DHT22;25568;37.410;-122.096;2023-03-11T11:59:40;18.30;93.00
33508;DHT22;25568;37.410;-122.096;2023-03-11T12:02:21;18.30;93.00
33508;DHT22;25568;37.410;-122.096;2023-03-11T12:04:56;18.30;93.00
33508;DHT22;25568;37.410;-122.096;2023-03-11T12:07:56;18.30;93.00
33508;DHT22;25568;37.410;-122.096;2023-03-11T12:10:32;18.30;93.10
33508;DHT22;25568;37.410;-122.096;2023-03-11T12:13:20;18.30;93.10
33508;DHT22;25568;37.410;-122.096;2023-03-11T12:15:53;18.30;93.10
33508;DHT22;25568;37.410;-122.096;2023-03-11T12:18:28;18.20;93.10
33508;DHT22;25568;37.410;-122.096;2023-03-11T12:21:09;18.20;93.20
33508;DHT22;25568;37.410;-122.096;2023-03-11T12:23:48;18.20;93.20
33508;DHT22;25568;37.410;-122.096;2023-03-11T12:26:24;18.20;93.50
33508;DHT22;25568;37.410;-122.096;2023-03-11T12:28:56;18.20;93.30
33508;DHT22;25568;37.410;-122.096;2023-03-11T12:31:32;18.20;93.20
33508;DHT22;25568;37.410;-122.096;2023-03-11T12:34:06;18.30;93.20
33508;DHT22;25568;37.410;-122.096;2023-03-11T12:36:39;18.30;93.20
33508;DHT22;25568;37.410;-122.096;2023-03-11T12:39:21;18.30;93.20
33508;DHT22;25568;37.410;-122.096;2023-03-11T12:42:15;18.30;93.20
33508;DHT22;25568;37.410;-122.096;2023-03-11T12:44:45;18.30;93.10
33508;DHT22;25568;37.410;-122.096;2023-03-11T12:47:26;18.30;93.20
33508;DHT22;25568;37.410;-122.096;2023-03-11T12:52:51;18.30;93.20
33508;DHT22;25568;37.410;-122.096;2023-03-11T12:55:31;18.30;93.10
33508;DHT22;25568;37.410;-122.096;2023-03-11T12:58:27;18.40;93.20
33508;DHT22;25568;37.410;-122.096;2023-03-11T13:01:21;18.40;93.20
33508;DHT22;25568;37.410;-122.096;2023-03-11T13:04:20;18.40;93.20
33508;DHT22;25568;37.410;-122.096;2023-03-11T13:10:20;18.40;93.20
33508;DHT22;25568;37.410;-122.096;2023-03-11T13:13:22;18.40;93.20
33508;DHT22;25568;37.410;-122.096;2023-03-11T13:15:51;18.50;93.20
33508;DHT22;25568;37.410;-122.096;2023-03-11T13:18:23;18.40;93.30
33508;DHT22;25568;37.410;-122.096;2023-03-11T13:20:54;18.50;93.20
33508;DHT22;25568;37.410;-122.096;2023-03-11T13:23:36;18.50;93.20
33508;DHT22;25568;37.410;-122.096;2023-03-11T13:26:16;18.50;93.20
33508;DHT22;25568;37.410;-122.096;2023-03-11T13:31:59;18.40;93.20
33508;DHT22;25568;37.410;-122.096;2023-03-11T13:34:38;18.30;93.20
33508;DHT22;25568;37.410;-122.096;2023-03-11T13:37:19;18.30;93.20
33508;DHT22;25568;37.410;-122.096;2023-03-11T13:39:59;18.30;93.20
33508;DHT22;25568;37.410;-122.096;2023-03-11T13:42:36;18.30;93.20
33508;DHT22;25568;37.410;-122.096;2023-03-11T13:45:18;18.30;93.20
33508;DHT22;25568;37.410;-122.096;2023-03-11T13:47:49;18.30;93.20
33508;DHT22;25568;37.410;-122.096;2023-03-11T13:50:23;18.20;93.20
33508;DHT22;25568;37.410;-122.096;2023-03-11T13:52:54;18.20;93.20
33508;DHT22;25568;37.410;-122.096;2023-03-11T13:55:29;18.20;93.20
33508;DHT22;25568;37.410;-122.096;2023-03-11T13:57:59;18.20;93.20
33508;DHT22;25568;37.410;-122.096;2023-03-11T14:00:31;18.20;93.30
33508;DHT22;25568;37.410;-122.096;2023-03-11T14:03:08;18.20;93.30
33508;DHT22;25568;37.410;-122.096;2023-03-11T14:05:44;18.20;93.30
33508;DHT22;25568;37.410;-122.096;2023-03-11T14:08:20;18.20;93.30
33508;DHT22;25568;37.410;-122.096;2023-03-11T14:10:53;18.20;93.30
33508;DHT22;25568;37.410;-122.096;2023-03-11T14:13:23;18.20;93.40
33508;DHT22;25568;37.410;-122.096;2023-03-11T14:15:58;18.20;93.30
33508;DHT22;25568;37.410;-122.096;2023-03-11T14:18:31;18.30;93.70
33508;DHT22;25568;37.410;-122.096;2023-03-11T14:21:00;18.30;93.30
33508;DHT22;25568;37.410;-122.096;2023-03-11T14:23:33;18.30;93.30
33508;DHT22;25568;37.410;-122.096;2023-03-11T14:26:06;18.30;93.30
33508;DHT22;25568;37.410;-122.096;2023-03-11T14:28:41;18.30;93.30
33508;DHT22;25568;37.410;-122.096;2023-03-11T14:31:23;18.30;93.40
33508;DHT22;25568;37.410;-122.096;2023-03-11T14:33:56;18.30;93.30
33508;DHT22;25568;37.410;-122.096;2023-03-11T14:36:30;18.30;93.30
33508;DHT22;25568;37.410;-122.096;2023-03-11T14:39:00;18.30;93.40
33508;DHT22;25568;37.410;-122.096;2023-03-11T14:41:29;18.40;93.30
33508;DHT22;25568;37.410;-122.096;2023-03-11T14:43:58;18.40;93.70
33508;DHT22;25568;37.410;-122.096;2023-03-11T14:46:29;18.40;93.30
33508;DHT22;25568;37.410;-122.096;2023-03-11T14:49:01;18.40;93.30
33508;DHT22;25568;37.410;-122.096;2023-03-11T14:51:32;18.40;93.40
33508;DHT22;25568;37.410;-122.096;2023-03-11T14:54:06;18.40;93.30
33508;DHT22;25568;37.410;-122.096;2023-03-11T14:56:38;18.40;93.40
33508;DHT22;25568;37.410;-122.096;2023-03-11T14:59:11;18.40;93.30
33508;DHT22;25568;37.410;-122.096;2023-03-11T15:01:44;18.40;93.40
33508;DHT22;25568;37.410;-122.096;2023-03-11T15:04:19;18.50;93.40
33508;DHT22;25568;37.410;-122.096;2023-03-11T15:06:53;18.50;93.30
33508;DHT22;25568;37.410;-122.096;2023-03-11T15:09:23;18.50;93.40
33508;DHT22;25568;37.410;-122.096;2023-03-11T15:11:54;18.50;93.30
33508;DHT22;25568;37.410;-122.096;2023-03-11T15:14:25;18.50;93.30
33508;DHT22;25568;37.410;-122.096;2023-03-11T15:17:08;18.40;93.30
33508;DHT22;25568;37.410;-122.096;2023-03-11T15:19:37;18.30;93.30
33508;DHT22;25568;37.410;-122.096;2023-03-11T15:22:23;18.30;93.30
33508;DHT22;25568;37.410;-122.096;2023-03-11T15:24:54;18.30;93.30
33508;DHT22;25568;37.410;-122.096;2023-03-11T15:27:28;18.30;93.30
33508;DHT22;25568;37.410;-122.096;2023-03-11T15:29:58;18.30;93.30